createdAt,value
2023-04-08T00:01:05.314Z,65
2023-04-08T00:16:05.294Z,53
2023-04-08T00:31:05.651Z,49
2023-04-08T00:46:04.958Z,46
2023-04-08T01:01:05.401Z,35
2023-04-08T01:16:05.197Z,30
2023-04-08T01:31:05.781Z,32
2023-04-08T01:46:05.097Z,39
2023-04-08T02:01:05.445Z,43
2023-04-08T02:16:05.828Z,40
2023-04-08T02:31:04.885Z,38
2023-04-08T02:46:05.297Z,48
2023-04-08T03:01:05.836Z,44
2023-04-08T03:16:05.497Z,38
2023-04-08T03:31:05.199Z,40
2023-04-08T03:46:05.515Z,39
2023-04-08T04:01:05.729Z,40
2023-04-08T04:16:05.159Z,42
2023-04-08T04:31:05.326Z,41
2023-04-08T04:46:05.411Z,37
2023-04-08T05:16:05.903Z,35
2023-04-08T05:31:04.962Z,38
2023-04-08T05:46:05.156Z,31
2023-04-08T06:01:05.197Z,28
2023-04-08T06:16:05.781Z,34
2023-04-08T06:31:04.803Z,26
2023-04-08T06:46:04.918Z,27
2023-04-08T07:01:05.207Z,25
2023-04-08T07:16:05.125Z,26
2023-04-08T07:31:05.656Z,25
2023-04-08T07:46:05.849Z,21
2023-04-08T08:01:04.820Z,21
2023-04-08T08:16:05.808Z,19
2023-04-08T08:31:04.969Z,16
2023-04-08T08:46:05.650Z,19
2023-04-08T09:01:04.949Z,17
2023-04-08T09:16:05.640Z,15
2023-04-08T09:31:05.000Z,15
2023-04-08T09:46:05.561Z,14
2023-04-08T10:01:05.759Z,14
2023-04-08T10:16:07.613Z,11
2023-04-08T10:31:05.712Z,22
2023-04-08T10:46:05.898Z,22
2023-04-08T11:01:05.402Z,32
2023-04-08T11:16:18.425Z,21
2023-04-08T11:31:05.954Z,27
2023-04-08T11:46:05.323Z,22
2023-04-08T12:01:05.487Z,28
2023-04-08T12:16:04.950Z,27
2023-04-08T12:31:05.139Z,27
2023-04-08T12:46:04.844Z,29
2023-04-08T13:01:05.295Z,41
2023-04-08T13:16:04.870Z,41
2023-04-08T13:31:05.265Z,33
2023-04-08T13:46:05.499Z,39
2023-04-08T14:01:04.945Z,49
2023-04-08T14:16:04.965Z,41
2023-04-08T14:31:05.881Z,44
2023-04-08T14:46:05.176Z,40
2023-04-08T15:01:05.544Z,42
2023-04-08T15:16:05.562Z,44
2023-04-08T15:31:05.720Z,49
2023-04-08T15:46:04.807Z,50
2023-04-08T16:01:05.074Z,53
2023-04-08T16:16:05.463Z,37
2023-04-08T16:31:05.635Z,38
2023-04-08T16:46:04.809Z,39
2023-04-08T17:01:05.081Z,43
2023-04-08T17:16:05.322Z,49
2023-04-08T17:31:04.996Z,38
2023-04-08T17:46:05.199Z,48
2023-04-08T18:01:04.666Z,56
2023-04-08T18:16:05.267Z,58
2023-04-08T18:31:04.971Z,58
2023-04-08T18:46:05.037Z,54
2023-04-08T19:01:05.377Z,59
2023-04-08T19:16:04.856Z,58
2023-04-08T19:31:05.182Z,54
2023-04-08T19:46:05.326Z,48
2023-04-08T20:01:05.661Z,46
2023-04-08T20:16:05.650Z,46
2023-04-08T20:31:04.710Z,45
2023-04-08T20:46:05.348Z,46
2023-04-08T21:01:05.328Z,42
2023-04-08T21:16:05.523Z,52
2023-04-08T21:31:05.691Z,60
2023-04-08T21:46:04.717Z,63
2023-04-08T22:01:05.622Z,69
2023-04-08T22:16:05.335Z,71
2023-04-08T22:31:05.608Z,72
2023-04-08T22:46:05.721Z,69
2023-04-08T23:01:05.206Z,77
2023-04-08T23:16:05.491Z,66
2023-04-08T23:31:05.199Z,54
2023-04-08T23:46:05.604Z,56
